Fairview, TN

6:54 AM CST on February 12, 2016 (GMT -0600)
KTNFAIRV3 | | Change Station
CLOSE
Current Station
Personal Weather Station
Location: Fairview, TN
Elevation: 800 ft
Nearby Weather Stations

Elev 800 ft 36.00 °N, 87.07 °W | Updated 22 seconds ago

Partly Cloudy
Partly Cloudy
33.3 °F
Feels Like 33 °F
N
0.0
Wind Variable Wind from North
Gusts 0.0 mph

Today
High -- | Low -- °F
--% Chance of Precip.
Yesterday
High -- | Low -- °F
Precip. -- in
Pressure 30.20 in
Visibility 9.0 miles
Clouds Mostly Cloudy 3400 ft
Overcast 4600 ft
Windchill 33 °F
Dew Point 26 °F
Humidity 73%
Rainfall 0.00 in
Snow Depth Not available.
6:39 AM 5:26 PM
Waxing Crescent, 20% visible
METAR KBNA 121153Z 01005KT 9SM -SN BKN034 OVC046 01/M06 A3019 RMK AO2 SLP226 P0000 60000 T00111056 10011 20006 53005
Pressure 30.20 in
Visibility 9.0 miles
Clouds Mostly Cloudy 3400 ft
Overcast 4600 ft
Windchill 33 °F
Dew Point 26 °F
Humidity 73%
Rainfall 0.00 in
Snow Depth Not available.
6:39 AM 5:26 PM
Waxing Crescent, 20% visible
METAR KBNA 121153Z 01005KT 9SM -SN BKN034 OVC046 01/M06 A3019 RMK AO2 SLP226 P0000 60000 T00111056 10011 20006 53005

10-Day Weather Forecast

Almanac

Astronomy

Feb. 12, 2016 Rise Set
Actual Time
Civil Twilight
Nautical Twilight
Astronomical Twilight
Moon
Length of Visible Light
Length of Day
Tomorrow will be .
, % of the Moon is Illuminated

Today's Extremes

State Highs State Lows

Community

WunderPhotos

Upload Photos

1,892,300 photos uploaded!

WunderBlog® & News

Nearby

Air Quality

  Air Quality AQ Index Pollutant
Not available.

Snow Depth

Station Depth Elevation

Earthquake Activity

City Distance Mag. Time & Date
Minimum magnitude displayed is 2.5.

Coastal Water Temperatures

Place Temperature

Stations

Nearby Weather Stations

Station Location Temp. Windchill Dew Point Humidity Wind Precip. Elev Updated Type
                   

Watches & Warnings

There are currently no watches in effect.